Paw Paw, Illinois
Current Conditions -  °F | °C
As of 5:15 AM on Saturday 25 Oct 2014 (Local Time) from KRPJ Reporting Station
Haze Haze  
Wind Chill: 14°   Ceiling: 900
Heat Index: 14°   Visibility: 4mi
Dew Point: 13°   Wind: 7mph
Humidity: 95%   Direction: 280°W
Pressure: 29.94"   Gusts: NA
Location:  41.69°N, 88.98°W
Report Text: KRPJ 251015Z AUTO 28006KT 4SM BR OVC009 14/13 A2994 RMK AO2 T01360128
Loading
Personal Weather Stations






























Interactive Weather Map
Tropical Storm Tracking
New forecast layout! Learn more

10-Day Weather Forecast

Advertisements
Track Severe Weather on mobile